sensor_id;sensor_type;location;lat;lon;timestamp;P1;durP1;ratioP1;P2;durP2;ratioP2
22673;SDS011;11504;43.334;21.918;2023-09-08T00:00:27;10.0;;;10.0;;
22673;SDS011;11504;43.334;21.918;2023-09-08T00:05:04;11.0;;;11.0;;
22673;SDS011;11504;43.334;21.918;2023-09-08T00:09:41;11.0;;;11.0;;
22673;SDS011;11504;43.334;21.918;2023-09-08T00:14:18;12.0;;;12.0;;
22673;SDS011;11504;43.334;21.918;2023-09-08T00:18:54;12.0;;;12.0;;
22673;SDS011;11504;43.334;21.918;2023-09-08T00:23:31;12.0;;;12.0;;
22673;SDS011;11504;43.334;21.918;2023-09-08T00:28:07;12.0;;;12.0;;
22673;SDS011;11504;43.334;21.918;2023-09-08T00:32:44;12.0;;;12.0;;
22673;SDS011;11504;43.334;21.918;2023-09-08T00:37:20;12.0;;;11.0;;
22673;SDS011;11504;43.334;21.918;2023-09-08T00:41:57;12.0;;;11.0;;
22673;SDS011;11504;43.334;21.918;2023-09-08T00:46:33;13.0;;;12.0;;
22673;SDS011;11504;43.334;21.918;2023-09-08T00:51:10;13.0;;;12.0;;
22673;SDS011;11504;43.334;21.918;2023-09-08T00:55:48;14.0;;;13.0;;
22673;SDS011;11504;43.334;21.918;2023-09-08T01:00:30;14.0;;;13.0;;
22673;SDS011;11504;43.334;21.918;2023-09-08T01:05:07;14.0;;;13.0;;
22673;SDS011;11504;43.334;21.918;2023-09-08T01:09:47;14.0;;;13.0;;
22673;SDS011;11504;43.334;21.918;2023-09-08T01:14:27;15.0;;;13.0;;
22673;SDS011;11504;43.334;21.918;2023-09-08T01:19:10;15.0;;;13.0;;
22673;SDS011;11504;43.334;21.918;2023-09-08T01:24:17;16.0;;;14.0;;
22673;SDS011;11504;43.334;21.918;2023-09-08T01:29:56;16.0;;;14.0;;
22673;SDS011;11504;43.334;21.918;2023-09-08T01:34:43;16.0;;;15.0;;
22673;SDS011;11504;43.334;21.918;2023-09-08T01:39:19;16.0;;;15.0;;
22673;SDS011;11504;43.334;21.918;2023-09-08T01:43:56;16.0;;;15.0;;
22673;SDS011;11504;43.334;21.918;2023-09-08T01:48:32;14.0;;;14.0;;
22673;SDS011;11504;43.334;21.918;2023-09-08T01:53:09;14.0;;;14.0;;
22673;SDS011;11504;43.334;21.918;2023-09-08T01:57:45;13.0;;;12.0;;
22673;SDS011;11504;43.334;21.918;2023-09-08T02:02:21;13.0;;;12.0;;
22673;SDS011;11504;43.334;21.918;2023-09-08T02:06:58;14.0;;;12.0;;
22673;SDS011;11504;43.334;21.918;2023-09-08T02:11:34;14.0;;;12.0;;
22673;SDS011;11504;43.334;21.918;2023-09-08T02:16:13;14.0;;;13.0;;
22673;SDS011;11504;43.334;21.918;2023-09-08T02:20:51;14.0;;;13.0;;
22673;SDS011;11504;43.334;21.918;2023-09-08T02:25:27;14.0;;;13.0;;
22673;SDS011;11504;43.334;21.918;2023-09-08T02:30:06;14.0;;;13.0;;
22673;SDS011;11504;43.334;21.918;2023-09-08T02:34:45;14.0;;;13.0;;
22673;SDS011;11504;43.334;21.918;2023-09-08T02:39:21;14.0;;;13.0;;
22673;SDS011;11504;43.334;21.918;2023-09-08T02:43:58;14.0;;;13.0;;
22673;SDS011;11504;43.334;21.918;2023-09-08T02:48:34;14.0;;;12.0;;
22673;SDS011;11504;43.334;21.918;2023-09-08T02:53:12;14.0;;;12.0;;
22673;SDS011;11504;43.334;21.918;2023-09-08T02:57:48;13.0;;;12.0;;
22673;SDS011;11504;43.334;21.918;2023-09-08T03:02:25;13.0;;;12.0;;
22673;SDS011;11504;43.334;21.918;2023-09-08T03:07:02;14.0;;;13.0;;
22673;SDS011;11504;43.334;21.918;2023-09-08T03:11:39;14.0;;;13.0;;
22673;SDS011;11504;43.334;21.918;2023-09-08T03:16:15;14.0;;;14.0;;
22673;SDS011;11504;43.334;21.918;2023-09-08T03:20:51;14.0;;;14.0;;
22673;SDS011;11504;43.334;21.918;2023-09-08T03:25:27;14.0;;;14.0;;
22673;SDS011;11504;43.334;21.918;2023-09-08T03:30:05;14.0;;;14.0;;
22673;SDS011;11504;43.334;21.918;2023-09-08T03:34:45;15.0;;;14.0;;
22673;SDS011;11504;43.334;21.918;2023-09-08T03:39:21;15.0;;;14.0;;
22673;SDS011;11504;43.334;21.918;2023-09-08T03:43:58;15.0;;;14.0;;
22673;SDS011;11504;43.334;21.918;2023-09-08T03:48:34;16.0;;;14.0;;
22673;SDS011;11504;43.334;21.918;2023-09-08T03:53:11;16.0;;;14.0;;
22673;SDS011;11504;43.334;21.918;2023-09-08T03:57:49;16.0;;;15.0;;
22673;SDS011;11504;43.334;21.918;2023-09-08T04:02:25;16.0;;;15.0;;
22673;SDS011;11504;43.334;21.918;2023-09-08T04:07:02;14.0;;;14.0;;
22673;SDS011;11504;43.334;21.918;2023-09-08T04:11:40;14.0;;;14.0;;
22673;SDS011;11504;43.334;21.918;2023-09-08T04:16:17;13.0;;;12.0;;
22673;SDS011;11504;43.334;21.918;2023-09-08T04:20:54;13.0;;;12.0;;
22673;SDS011;11504;43.334;21.918;2023-09-08T04:25:31;13.0;;;12.0;;
22673;SDS011;11504;43.334;21.918;2023-09-08T04:30:08;13.0;;;12.0;;
22673;SDS011;11504;43.334;21.918;2023-09-08T04:34:48;13.0;;;13.0;;
22673;SDS011;11504;43.334;21.918;2023-09-08T04:39:25;13.0;;;13.0;;
22673;SDS011;11504;43.334;21.918;2023-09-08T04:44:01;13.0;;;13.0;;
22673;SDS011;11504;43.334;21.918;2023-09-08T04:48:39;14.0;;;13.0;;
22673;SDS011;11504;43.334;21.918;2023-09-08T04:53:15;14.0;;;13.0;;
22673;SDS011;11504;43.334;21.918;2023-09-08T04:57:52;14.0;;;13.0;;
22673;SDS011;11504;43.334;21.918;2023-09-08T05:02:28;14.0;;;13.0;;
22673;SDS011;11504;43.334;21.918;2023-09-08T05:07:05;14.0;;;13.0;;
22673;SDS011;11504;43.334;21.918;2023-09-08T05:11:41;14.0;;;13.0;;
22673;SDS011;11504;43.334;21.918;2023-09-08T05:16:18;13.0;;;13.0;;
22673;SDS011;11504;43.334;21.918;2023-09-08T05:20:55;13.0;;;13.0;;
22673;SDS011;11504;43.334;21.918;2023-09-08T05:25:31;12.0;;;12.0;;
22673;SDS011;11504;43.334;21.918;2023-09-08T05:30:09;12.0;;;12.0;;
22673;SDS011;11504;43.334;21.918;2023-09-08T05:34:48;12.0;;;11.0;;
22673;SDS011;11504;43.334;21.918;2023-09-08T05:39:24;12.0;;;11.0;;
22673;SDS011;11504;43.334;21.918;2023-09-08T05:44:01;12.0;;;11.0;;
22673;SDS011;11504;43.334;21.918;2023-09-08T05:48:38;12.0;;;10.0;;
22673;SDS011;11504;43.334;21.918;2023-09-08T05:53:14;12.0;;;10.0;;
22673;SDS011;11504;43.334;21.918;2023-09-08T05:57:51;11.0;;;10.0;;
22673;SDS011;11504;43.334;21.918;2023-09-08T06:02:27;11.0;;;10.0;;
22673;SDS011;11504;43.334;21.918;2023-09-08T06:07:03;10.0;;;9.0;;
22673;SDS011;11504;43.334;21.918;2023-09-08T06:11:40;10.0;;;9.0;;
22673;SDS011;11504;43.334;21.918;2023-09-08T06:16:16;9.0;;;8.0;;
22673;SDS011;11504;43.334;21.918;2023-09-08T06:20:53;9.0;;;8.0;;
22673;SDS011;11504;43.334;21.918;2023-09-08T06:25:29;8.0;;;8.0;;
22673;SDS011;11504;43.334;21.918;2023-09-08T06:30:08;8.0;;;8.0;;
22673;SDS011;11504;43.334;21.918;2023-09-08T06:34:48;8.0;;;8.0;;
22673;SDS011;11504;43.334;21.918;2023-09-08T06:39:25;8.0;;;8.0;;
22673;SDS011;11504;43.334;21.918;2023-09-08T06:44:03;8.0;;;8.0;;
22673;SDS011;11504;43.334;21.918;2023-09-08T06:48:41;8.0;;;8.0;;
22673;SDS011;11504;43.334;21.918;2023-09-08T06:53:18;8.0;;;8.0;;
22673;SDS011;11504;43.334;21.918;2023-09-08T06:57:56;8.0;;;8.0;;
22673;SDS011;11504;43.334;21.918;2023-09-08T07:02:33;8.0;;;8.0;;
22673;SDS011;11504;43.334;21.918;2023-09-08T07:07:10;9.0;;;8.0;;
22673;SDS011;11504;43.334;21.918;2023-09-08T07:11:46;9.0;;;8.0;;
22673;SDS011;11504;43.334;21.918;2023-09-08T07:16:23;10.0;;;9.0;;
22673;SDS011;11504;43.334;21.918;2023-09-08T07:20:59;10.0;;;9.0;;
22673;SDS011;11504;43.334;21.918;2023-09-08T07:25:35;10.0;;;8.0;;
22673;SDS011;11504;43.334;21.918;2023-09-08T07:30:12;10.0;;;8.0;;
22673;SDS011;11504;43.334;21.918;2023-09-08T07:34:49;9.0;;;8.0;;
22673;SDS011;11504;43.334;21.918;2023-09-08T07:39:26;9.0;;;8.0;;
22673;SDS011;11504;43.334;21.918;2023-09-08T07:44:03;9.0;;;8.0;;
22673;SDS011;11504;43.334;21.918;2023-09-08T07:48:41;8.0;;;8.0;;
22673;SDS011;11504;43.334;21.918;2023-09-08T07:53:18;8.0;;;8.0;;
22673;SDS011;11504;43.334;21.918;2023-09-08T07:57:55;8.0;;;7.0;;
22673;SDS011;11504;43.334;21.918;2023-09-08T08:02:34;8.0;;;7.0;;
22673;SDS011;11504;43.334;21.918;2023-09-08T08:07:10;8.0;;;7.0;;
22673;SDS011;11504;43.334;21.918;2023-09-08T08:11:47;8.0;;;7.0;;
22673;SDS011;11504;43.334;21.918;2023-09-08T08:16:23;8.0;;;7.0;;
22673;SDS011;11504;43.334;21.918;2023-09-08T08:21:00;8.0;;;7.0;;
22673;SDS011;11504;43.334;21.918;2023-09-08T08:25:37;8.0;;;7.0;;
22673;SDS011;11504;43.334;21.918;2023-09-08T08:30:13;8.0;;;7.0;;
22673;SDS011;11504;43.334;21.918;2023-09-08T08:34:49;7.0;;;7.0;;
22673;SDS011;11504;43.334;21.918;2023-09-08T08:39:25;7.0;;;7.0;;
22673;SDS011;11504;43.334;21.918;2023-09-08T08:44:01;7.0;;;7.0;;
22673;SDS011;11504;43.334;21.918;2023-09-08T08:48:40;8.0;;;7.0;;
22673;SDS011;11504;43.334;21.918;2023-09-08T08:53:22;8.0;;;7.0;;
22673;SDS011;11504;43.334;21.918;2023-09-08T08:58:04;8.0;;;7.0;;
22673;SDS011;11504;43.334;21.918;2023-09-08T09:02:43;8.0;;;7.0;;
22673;SDS011;11504;43.334;21.918;2023-09-08T09:07:26;8.0;;;7.0;;
22673;SDS011;11504;43.334;21.918;2023-09-08T09:12:05;8.0;;;7.0;;
22673;SDS011;11504;43.334;21.918;2023-09-08T09:16:44;8.0;;;7.0;;
22673;SDS011;11504;43.334;21.918;2023-09-08T09:21:22;8.0;;;7.0;;
22673;SDS011;11504;43.334;21.918;2023-09-08T09:26:24;8.0;;;7.0;;
22673;SDS011;11504;43.334;21.918;2023-09-08T09:31:02;8.0;;;7.0;;
22673;SDS011;11504;43.334;21.918;2023-09-08T09:35:41;8.0;;;7.0;;
22673;SDS011;11504;43.334;21.918;2023-09-08T09:40:27;8.0;;;7.0;;
22673;SDS011;11504;43.334;21.918;2023-09-08T09:45:06;8.0;;;8.0;;
22673;SDS011;11504;43.334;21.918;2023-09-08T09:49:48;8.0;;;8.0;;
22673;SDS011;11504;43.334;21.918;2023-09-08T09:54:25;8.0;;;8.0;;
22673;SDS011;11504;43.334;21.918;2023-09-08T09:59:04;8.0;;;8.0;;
22673;SDS011;11504;43.334;21.918;2023-09-08T10:03:47;8.0;;;8.0;;
22673;SDS011;11504;43.334;21.918;2023-09-08T10:08:26;8.0;;;8.0;;
22673;SDS011;11504;43.334;21.918;2023-09-08T10:13:07;8.0;;;8.0;;
22673;SDS011;11504;43.334;21.918;2023-09-08T10:17:59;8.0;;;7.0;;
22673;SDS011;11504;43.334;21.918;2023-09-08T10:22:54;8.0;;;7.0;;
22673;SDS011;11504;43.334;21.918;2023-09-08T10:27:58;8.0;;;7.0;;
22673;SDS011;11504;43.334;21.918;2023-09-08T10:32:36;8.0;;;7.0;;
22673;SDS011;11504;43.334;21.918;2023-09-08T10:37:20;9.0;;;7.0;;
22673;SDS011;11504;43.334;21.918;2023-09-08T10:42:33;9.0;;;7.0;;
22673;SDS011;11504;43.334;21.918;2023-09-08T10:47:09;8.0;;;7.0;;
22673;SDS011;11504;43.334;21.918;2023-09-08T10:51:48;8.0;;;7.0;;
22673;SDS011;11504;43.334;21.918;2023-09-08T10:56:29;8.0;;;7.0;;
22673;SDS011;11504;43.334;21.918;2023-09-08T11:01:31;8.0;;;7.0;;
22673;SDS011;11504;43.334;21.918;2023-09-08T11:06:09;8.0;;;7.0;;
22673;SDS011;11504;43.334;21.918;2023-09-08T11:10:46;8.0;;;7.0;;
22673;SDS011;11504;43.334;21.918;2023-09-08T11:15:23;8.0;;;7.0;;
22673;SDS011;11504;43.334;21.918;2023-09-08T11:20:02;8.0;;;7.0;;
22673;SDS011;11504;43.334;21.918;2023-09-08T11:24:42;8.0;;;7.0;;
22673;SDS011;11504;43.334;21.918;2023-09-08T11:29:20;8.0;;;7.0;;
22673;SDS011;11504;43.334;21.918;2023-09-08T11:33:57;8.0;;;7.0;;
22673;SDS011;11504;43.334;21.918;2023-09-08T11:38:34;8.0;;;7.0;;
22673;SDS011;11504;43.334;21.918;2023-09-08T11:43:11;8.0;;;7.0;;
22673;SDS011;11504;43.334;21.918;2023-09-08T11:47:49;8.0;;;8.0;;
22673;SDS011;11504;43.334;21.918;2023-09-08T11:52:28;8.0;;;8.0;;
22673;SDS011;11504;43.334;21.918;2023-09-08T11:57:06;8.0;;;8.0;;
22673;SDS011;11504;43.334;21.918;2023-09-08T12:01:44;8.0;;;8.0;;
22673;SDS011;11504;43.334;21.918;2023-09-08T12:06:24;8.0;;;8.0;;
22673;SDS011;11504;43.334;21.918;2023-09-08T12:11:04;8.0;;;8.0;;
22673;SDS011;11504;43.334;21.918;2023-09-08T12:15:42;9.0;;;9.0;;
22673;SDS011;11504;43.334;21.918;2023-09-08T12:20:20;9.0;;;9.0;;
22673;SDS011;11504;43.334;21.918;2023-09-08T12:24:57;8.0;;;8.0;;
22673;SDS011;11504;43.334;21.918;2023-09-08T12:29:34;8.0;;;8.0;;
22673;SDS011;11504;43.334;21.918;2023-09-08T12:34:10;8.0;;;8.0;;
22673;SDS011;11504;43.334;21.918;2023-09-08T12:38:47;8.0;;;7.0;;
22673;SDS011;11504;43.334;21.918;2023-09-08T12:43:27;8.0;;;7.0;;
22673;SDS011;11504;43.334;21.918;2023-09-08T12:48:04;8.0;;;8.0;;
22673;SDS011;11504;43.334;21.918;2023-09-08T12:52:43;8.0;;;8.0;;
22673;SDS011;11504;43.334;21.918;2023-09-08T12:57:20;8.0;;;8.0;;
22673;SDS011;11504;43.334;21.918;2023-09-08T13:01:57;8.0;;;8.0;;
22673;SDS011;11504;43.334;21.918;2023-09-08T13:06:33;8.0;;;8.0;;
22673;SDS011;11504;43.334;21.918;2023-09-08T13:11:10;8.0;;;8.0;;
22673;SDS011;11504;43.334;21.918;2023-09-08T13:15:47;8.0;;;8.0;;
22673;SDS011;11504;43.334;21.918;2023-09-08T13:20:23;8.0;;;8.0;;
22673;SDS011;11504;43.334;21.918;2023-09-08T13:25:00;8.0;;;8.0;;
22673;SDS011;11504;43.334;21.918;2023-09-08T13:29:36;8.0;;;8.0;;
22673;SDS011;11504;43.334;21.918;2023-09-08T13:34:13;8.0;;;8.0;;
22673;SDS011;11504;43.334;21.918;2023-09-08T13:38:50;8.0;;;8.0;;
22673;SDS011;11504;43.334;21.918;2023-09-08T13:43:26;8.0;;;8.0;;
22673;SDS011;11504;43.334;21.918;2023-09-08T13:48:03;8.0;;;8.0;;
22673;SDS011;11504;43.334;21.918;2023-09-08T13:52:41;8.0;;;8.0;;
22673;SDS011;11504;43.334;21.918;2023-09-08T13:57:17;9.0;;;9.0;;
22673;SDS011;11504;43.334;21.918;2023-09-08T14:01:53;9.0;;;9.0;;
22673;SDS011;11504;43.334;21.918;2023-09-08T14:06:30;8.0;;;8.0;;
22673;SDS011;11504;43.334;21.918;2023-09-08T14:11:08;8.0;;;8.0;;
22673;SDS011;11504;43.334;21.918;2023-09-08T14:15:45;8.0;;;7.0;;
22673;SDS011;11504;43.334;21.918;2023-09-08T14:20:22;8.0;;;7.0;;
22673;SDS011;11504;43.334;21.918;2023-09-08T14:24:58;8.0;;;8.0;;
22673;SDS011;11504;43.334;21.918;2023-09-08T14:29:35;8.0;;;8.0;;
22673;SDS011;11504;43.334;21.918;2023-09-08T14:34:12;8.0;;;8.0;;
22673;SDS011;11504;43.334;21.918;2023-09-08T14:38:49;8.0;;;8.0;;
22673;SDS011;11504;43.334;21.918;2023-09-08T14:43:27;8.0;;;8.0;;
22673;SDS011;11504;43.334;21.918;2023-09-08T14:48:06;8.0;;;8.0;;
22673;SDS011;11504;43.334;21.918;2023-09-08T14:52:43;8.0;;;8.0;;
22673;SDS011;11504;43.334;21.918;2023-09-08T14:57:20;8.0;;;7.0;;
22673;SDS011;11504;43.334;21.918;2023-09-08T15:01:57;8.0;;;7.0;;
22673;SDS011;11504;43.334;21.918;2023-09-08T15:06:34;8.0;;;7.0;;
22673;SDS011;11504;43.334;21.918;2023-09-08T15:11:10;8.0;;;7.0;;
22673;SDS011;11504;43.334;21.918;2023-09-08T15:15:47;8.0;;;7.0;;
22673;SDS011;11504;43.334;21.918;2023-09-08T15:20:23;8.0;;;7.0;;
22673;SDS011;11504;43.334;21.918;2023-09-08T15:24:59;8.0;;;8.0;;
22673;SDS011;11504;43.334;21.918;2023-09-08T15:29:36;8.0;;;8.0;;
22673;SDS011;11504;43.334;21.918;2023-09-08T15:34:12;8.0;;;8.0;;
22673;SDS011;11504;43.334;21.918;2023-09-08T15:38:49;9.0;;;9.0;;
22673;SDS011;11504;43.334;21.918;2023-09-08T15:43:25;9.0;;;9.0;;
22673;SDS011;11504;43.334;21.918;2023-09-08T15:48:03;8.0;;;8.0;;
22673;SDS011;11504;43.334;21.918;2023-09-08T15:52:41;8.0;;;8.0;;
22673;SDS011;11504;43.334;21.918;2023-09-08T15:57:17;8.0;;;8.0;;
22673;SDS011;11504;43.334;21.918;2023-09-08T16:01:54;8.0;;;8.0;;
22673;SDS011;11504;43.334;21.918;2023-09-08T16:06:30;8.0;;;8.0;;
22673;SDS011;11504;43.334;21.918;2023-09-08T16:11:06;8.0;;;8.0;;
22673;SDS011;11504;43.334;21.918;2023-09-08T16:15:43;8.0;;;8.0;;
22673;SDS011;11504;43.334;21.918;2023-09-08T16:20:19;8.0;;;8.0;;
22673;SDS011;11504;43.334;21.918;2023-09-08T16:24:56;8.0;;;8.0;;
22673;SDS011;11504;43.334;21.918;2023-09-08T16:29:32;8.0;;;8.0;;
22673;SDS011;11504;43.334;21.918;2023-09-08T16:34:08;8.0;;;8.0;;
22673;SDS011;11504;43.334;21.918;2023-09-08T16:38:44;9.0;;;8.0;;
22673;SDS011;11504;43.334;21.918;2023-09-08T16:43:20;9.0;;;8.0;;
22673;SDS011;11504;43.334;21.918;2023-09-08T16:47:57;9.0;;;8.0;;
22673;SDS011;11504;43.334;21.918;2023-09-08T16:52:33;9.0;;;8.0;;
22673;SDS011;11504;43.334;21.918;2023-09-08T16:57:10;9.0;;;8.0;;
22673;SDS011;11504;43.334;21.918;2023-09-08T17:01:47;9.0;;;8.0;;
22673;SDS011;11504;43.334;21.918;2023-09-08T17:06:25;9.0;;;8.0;;
22673;SDS011;11504;43.334;21.918;2023-09-08T17:11:04;9.0;;;8.0;;
22673;SDS011;11504;43.334;21.918;2023-09-08T17:15:42;9.0;;;9.0;;
22673;SDS011;11504;43.334;21.918;2023-09-08T17:20:19;9.0;;;9.0;;
22673;SDS011;11504;43.334;21.918;2023-09-08T17:24:56;9.0;;;9.0;;
22673;SDS011;11504;43.334;21.918;2023-09-08T17:29:32;9.0;;;9.0;;
22673;SDS011;11504;43.334;21.918;2023-09-08T17:34:17;9.0;;;9.0;;
22673;SDS011;11504;43.334;21.918;2023-09-08T17:38:57;9.0;;;9.0;;
22673;SDS011;11504;43.334;21.918;2023-09-08T17:43:33;9.0;;;9.0;;
22673;SDS011;11504;43.334;21.918;2023-09-08T17:48:11;10.0;;;10.0;;
22673;SDS011;11504;43.334;21.918;2023-09-08T17:52:47;10.0;;;10.0;;
22673;SDS011;11504;43.334;21.918;2023-09-08T17:57:24;12.0;;;10.0;;
22673;SDS011;11504;43.334;21.918;2023-09-08T18:02:00;12.0;;;10.0;;
22673;SDS011;11504;43.334;21.918;2023-09-08T18:06:37;11.0;;;10.0;;
22673;SDS011;11504;43.334;21.918;2023-09-08T18:11:13;11.0;;;10.0;;
22673;SDS011;11504;43.334;21.918;2023-09-08T18:15:57;10.0;;;10.0;;
22673;SDS011;11504;43.334;21.918;2023-09-08T18:20:34;10.0;;;10.0;;
22673;SDS011;11504;43.334;21.918;2023-09-08T18:25:10;10.0;;;10.0;;
22673;SDS011;11504;43.334;21.918;2023-09-08T18:29:47;10.0;;;10.0;;
22673;SDS011;11504;43.334;21.918;2023-09-08T18:34:24;10.0;;;10.0;;
22673;SDS011;11504;43.334;21.918;2023-09-08T18:39:01;10.0;;;9.0;;
22673;SDS011;11504;43.334;21.918;2023-09-08T18:43:37;10.0;;;9.0;;
22673;SDS011;11504;43.334;21.918;2023-09-08T18:48:14;10.0;;;10.0;;
22673;SDS011;11504;43.334;21.918;2023-09-08T18:52:50;10.0;;;10.0;;
22673;SDS011;11504;43.334;21.918;2023-09-08T18:57:27;11.0;;;10.0;;
22673;SDS011;11504;43.334;21.918;2023-09-08T19:02:03;11.0;;;10.0;;
22673;SDS011;11504;43.334;21.918;2023-09-08T19:06:40;11.0;;;10.0;;
22673;SDS011;11504;43.334;21.918;2023-09-08T19:11:17;11.0;;;10.0;;
22673;SDS011;11504;43.334;21.918;2023-09-08T19:15:54;11.0;;;11.0;;
22673;SDS011;11504;43.334;21.918;2023-09-08T19:20:30;11.0;;;11.0;;
22673;SDS011;11504;43.334;21.918;2023-09-08T19:25:07;12.0;;;11.0;;
22673;SDS011;11504;43.334;21.918;2023-09-08T19:29:47;12.0;;;11.0;;
22673;SDS011;11504;43.334;21.918;2023-09-08T19:34:25;12.0;;;11.0;;
22673;SDS011;11504;43.334;21.918;2023-09-08T19:39:01;12.0;;;11.0;;
22673;SDS011;11504;43.334;21.918;2023-09-08T19:43:38;12.0;;;11.0;;
22673;SDS011;11504;43.334;21.918;2023-09-08T19:48:15;12.0;;;12.0;;
22673;SDS011;11504;43.334;21.918;2023-09-08T19:52:52;12.0;;;12.0;;
22673;SDS011;11504;43.334;21.918;2023-09-08T19:57:28;12.0;;;12.0;;
22673;SDS011;11504;43.334;21.918;2023-09-08T20:02:05;12.0;;;12.0;;
22673;SDS011;11504;43.334;21.918;2023-09-08T20:06:44;12.0;;;12.0;;
22673;SDS011;11504;43.334;21.918;2023-09-08T20:11:21;12.0;;;12.0;;
22673;SDS011;11504;43.334;21.918;2023-09-08T20:15:59;13.0;;;13.0;;
22673;SDS011;11504;43.334;21.918;2023-09-08T20:20:43;13.0;;;13.0;;
22673;SDS011;11504;43.334;21.918;2023-09-08T20:25:19;12.0;;;12.0;;
22673;SDS011;11504;43.334;21.918;2023-09-08T20:29:56;12.0;;;12.0;;
22673;SDS011;11504;43.334;21.918;2023-09-08T20:34:32;12.0;;;12.0;;
22673;SDS011;11504;43.334;21.918;2023-09-08T20:39:08;12.0;;;12.0;;
22673;SDS011;11504;43.334;21.918;2023-09-08T20:43:45;12.0;;;12.0;;
22673;SDS011;11504;43.334;21.918;2023-09-08T20:48:22;12.0;;;12.0;;
22673;SDS011;11504;43.334;21.918;2023-09-08T20:52:58;12.0;;;12.0;;
22673;SDS011;11504;43.334;21.918;2023-09-08T20:57:35;12.0;;;11.0;;
22673;SDS011;11504;43.334;21.918;2023-09-08T21:02:12;12.0;;;11.0;;
22673;SDS011;11504;43.334;21.918;2023-09-08T21:06:49;12.0;;;12.0;;
22673;SDS011;11504;43.334;21.918;2023-09-08T21:11:25;12.0;;;12.0;;
22673;SDS011;11504;43.334;21.918;2023-09-08T21:16:01;12.0;;;12.0;;
22673;SDS011;11504;43.334;21.918;2023-09-08T21:20:38;12.0;;;12.0;;
22673;SDS011;11504;43.334;21.918;2023-09-08T21:25:15;12.0;;;12.0;;
22673;SDS011;11504;43.334;21.918;2023-09-08T21:29:53;12.0;;;12.0;;
22673;SDS011;11504;43.334;21.918;2023-09-08T21:34:30;12.0;;;12.0;;
22673;SDS011;11504;43.334;21.918;2023-09-08T21:39:06;13.0;;;12.0;;
22673;SDS011;11504;43.334;21.918;2023-09-08T21:43:43;13.0;;;12.0;;
22673;SDS011;11504;43.334;21.918;2023-09-08T21:48:19;12.0;;;12.0;;
22673;SDS011;11504;43.334;21.918;2023-09-08T21:52:55;12.0;;;12.0;;
22673;SDS011;11504;43.334;21.918;2023-09-08T21:57:32;12.0;;;12.0;;
22673;SDS011;11504;43.334;21.918;2023-09-08T22:02:08;12.0;;;12.0;;
22673;SDS011;11504;43.334;21.918;2023-09-08T22:06:44;14.0;;;13.0;;
22673;SDS011;11504;43.334;21.918;2023-09-08T22:11:20;14.0;;;13.0;;
22673;SDS011;11504;43.334;21.918;2023-09-08T22:15:57;15.0;;;14.0;;
22673;SDS011;11504;43.334;21.918;2023-09-08T22:20:38;15.0;;;14.0;;
22673;SDS011;11504;43.334;21.918;2023-09-08T22:25:14;15.0;;;14.0;;
22673;SDS011;11504;43.334;21.918;2023-09-08T22:29:51;15.0;;;14.0;;
22673;SDS011;11504;43.334;21.918;2023-09-08T22:34:28;15.0;;;14.0;;
22673;SDS011;11504;43.334;21.918;2023-09-08T22:39:04;15.0;;;15.0;;
22673;SDS011;11504;43.334;21.918;2023-09-08T22:43:41;15.0;;;15.0;;
22673;SDS011;11504;43.334;21.918;2023-09-08T22:48:18;14.0;;;14.0;;
22673;SDS011;11504;43.334;21.918;2023-09-08T22:52:58;14.0;;;14.0;;
22673;SDS011;11504;43.334;21.918;2023-09-08T22:57:35;14.0;;;13.0;;
22673;SDS011;11504;43.334;21.918;2023-09-08T23:02:13;14.0;;;13.0;;
22673;SDS011;11504;43.334;21.918;2023-09-08T23:06:49;14.0;;;13.0;;
22673;SDS011;11504;43.334;21.918;2023-09-08T23:11:26;14.0;;;13.0;;
22673;SDS011;11504;43.334;21.918;2023-09-08T23:16:04;13.0;;;13.0;;
22673;SDS011;11504;43.334;21.918;2023-09-08T23:20:40;13.0;;;13.0;;
22673;SDS011;11504;43.334;21.918;2023-09-08T23:25:17;13.0;;;13.0;;
22673;SDS011;11504;43.334;21.918;2023-09-08T23:29:53;13.0;;;13.0;;
22673;SDS011;11504;43.334;21.918;2023-09-08T23:34:30;13.0;;;13.0;;
22673;SDS011;11504;43.334;21.918;2023-09-08T23:39:07;13.0;;;13.0;;
22673;SDS011;11504;43.334;21.918;2023-09-08T23:43:44;13.0;;;13.0;;
22673;SDS011;11504;43.334;21.918;2023-09-08T23:48:20;13.0;;;13.0;;
22673;SDS011;11504;43.334;21.918;2023-09-08T23:52:57;13.0;;;13.0;;
22673;SDS011;11504;43.334;21.918;2023-09-08T23:57:33;13.0;;;13.0;;
